Time;durP1;ratioP1;P1;durP2;ratioP2;P2;SDS_P1;SDS_P2;PMS_P1;PMS_P2;Temp;Humidity;BMP_temperature;BMP_pressure;BME280_temperature;BME280_humidity;BME280_pressure;Samples;Min_cycle;Max_cycle;Signal;HPM_P1;HPM_P2
2023/04/01 00:00:24;;;;;;;3.33;1.90;;;;;;;9.30;100.00;98971.47;1047924;28;20294;-74
2023/04/01 00:00:58;;;;;;;3.88;2.17;;;;;;;9.26;100.00;98968.53;1048424;28;20295;-73
2023/04/01 00:01:30;;;;;;;3.53;3.05;;;;;;;9.34;100.00;98963.81;1047844;28;20291;-74
2023/04/01 00:02:01;;;;;;;5.78;2.15;;;;;;;9.36;100.00;98964.38;1043529;28;20321;-74
2023/04/01 00:02:33;;;;;;;5.28;2.38;;;;;;;9.28;100.00;98968.28;1035607;28;20301;-73
2023/04/01 00:03:04;;;;;;;6.65;2.05;;;;;;;9.22;100.00;98970.09;1036307;28;20313;-73
2023/04/01 00:03:36;;;;;;;4.05;2.28;;;;;;;9.15;100.00;98963.38;1036333;28;20378;-75
2023/04/01 00:04:08;;;;;;;3.85;2.10;;;;;;;9.23;100.00;98962.91;1039840;28;20705;-74
2023/04/01 00:04:41;;;;;;;3.42;1.88;;;;;;;9.20;100.00;98971.41;1044252;28;20388;-75
2023/04/01 00:05:13;;;;;;;5.15;2.30;;;;;;;9.14;100.00;98965.25;1044927;28;20303;-74
2023/04/01 00:05:45;;;;;;;8.20;2.35;;;;;;;9.14;100.00;98967.09;1047944;28;20302;-74
2023/04/01 00:06:18;;;;;;;3.83;2.53;;;;;;;9.20;100.00;98963.44;1048316;28;20294;-75
2023/04/01 00:06:51;;;;;;;4.07;2.20;;;;;;;9.19;100.00;98962.63;1040867;28;20386;-75
2023/04/01 00:07:23;;;;;;;2.88;1.73;;;;;;;9.22;100.00;98966.63;1035170;28;20790;-73
2023/04/01 00:07:54;;;;;;;5.20;2.65;;;;;;;9.24;100.00;98957.34;1036743;28;20295;-73
2023/04/01 00:08:27;;;;;;;2.20;1.98;;;;;;;9.27;100.00;98966.66;1040581;28;20303;-74
2023/04/01 00:08:58;;;;;;;5.43;2.28;;;;;;;9.28;100.00;98960.28;1040105;28;20296;-74
2023/04/01 00:09:30;;;;;;;3.85;1.70;;;;;;;9.26;100.00;98954.44;1043849;28;20318;-74
2023/04/01 00:10:03;;;;;;;9.02;2.08;;;;;;;9.26;100.00;98962.41;1041695;28;20789;-73
2023/04/01 00:10:34;;;;;;;3.20;2.85;;;;;;;9.24;100.00;98959.22;1043639;28;20325;-74
2023/04/01 00:11:06;;;;;;;6.05;2.30;;;;;;;9.25;100.00;98964.25;1044264;28;20341;-74
2023/04/01 00:11:40;;;;;;;5.78;2.03;;;;;;;9.23;100.00;98965.56;1044199;28;20299;-74
2023/04/01 00:12:11;;;;;;;3.55;1.92;;;;;;;9.25;100.00;98958.16;1043500;28;20363;-74
2023/04/01 00:12:43;;;;;;;2.30;1.67;;;;;;;9.33;100.00;98960.38;1043915;28;20322;-74
2023/04/01 00:13:15;;;;;;;3.47;1.80;;;;;;;9.28;100.00;98962.94;1046493;28;20306;-74
2023/04/01 00:13:47;;;;;;;6.05;2.30;;;;;;;9.26;100.00;98965.88;1044535;28;20615;-74
2023/04/01 00:14:19;;;;;;;3.25;2.05;;;;;;;9.33;100.00;98963.03;1044152;28;20303;-74
2023/04/01 00:14:50;;;;;;;4.95;2.42;;;;;;;9.30;100.00;98971.47;1044243;28;20321;-73
2023/04/01 00:15:22;;;;;;;4.93;2.65;;;;;;;9.31;100.00;98967.75;1041735;28;20299;-74
2023/04/01 00:15:55;;;;;;;3.38;1.75;;;;;;;9.30;100.00;98956.34;1043918;28;20306;-74
2023/04/01 00:16:27;;;;;;;5.32;2.70;;;;;;;9.20;100.00;98960.78;1044222;28;20307;-73
2023/04/01 00:16:59;;;;;;;3.53;2.17;;;;;;;9.23;100.00;98965.56;1044456;28;20433;-74
2023/04/01 00:17:31;;;;;;;3.60;1.52;;;;;;;9.29;100.00;98959.25;1047582;28;20431;-74
2023/04/01 00:18:03;;;;;;;6.18;2.30;;;;;;;9.27;100.00;98961.34;1048317;28;20405;-74
2023/04/01 00:18:34;;;;;;;7.60;2.35;;;;;;;9.28;100.00;98963.75;1048339;28;20325;-74
2023/04/01 00:19:06;;;;;;;4.43;2.72;;;;;;;9.22;100.00;98961.31;1044167;28;20295;-74
2023/04/01 00:19:37;;;;;;;3.72;2.83;;;;;;;9.27;100.00;98956.84;1044145;28;20510;-74
2023/04/01 00:20:10;;;;;;;5.50;2.05;;;;;;;9.21;100.00;98965.03;1044526;28;20292;-74
2023/04/01 00:20:46;;;;;;;3.05;2.20;;;;;;;9.26;100.00;98962.41;1043973;28;20890;-74
2023/04/01 00:21:20;;;;;;;2.90;1.80;;;;;;;9.32;100.00;98960.63;1043952;28;20809;-73
2023/04/01 00:21:52;;;;;;;6.32;2.35;;;;;;;9.28;100.00;98957.63;1043814;28;20344;-75
2023/04/01 00:22:24;;;;;;;3.28;1.60;;;;;;;9.23;100.00;98960.25;1043891;28;20291;-74
2023/04/01 00:22:56;;;;;;;3.70;1.98;;;;;;;9.24;100.00;98960.00;1041358;28;20292;-73
2023/04/01 00:23:28;;;;;;;4.10;2.40;;;;;;;9.25;100.00;98958.16;1041112;28;20331;-74
2023/04/01 00:24:00;;;;;;;5.18;2.25;;;;;;;9.29;100.00;98960.03;1046609;28;20299;-74
2023/04/01 00:24:31;;;;;;;5.28;2.28;;;;;;;9.23;100.00;98965.56;1048106;28;20305;-74
2023/04/01 00:25:04;;;;;;;3.00;1.98;;;;;;;9.26;100.00;98959.75;1047758;28;20294;-74
2023/04/01 00:25:36;;;;;;;3.28;2.15;;;;;;;9.23;100.00;98966.38;1047768;28;20321;-74
2023/04/01 00:26:26;;;;;;;5.45;2.33;;;;;;;9.23;100.00;98960.25;1047705;28;20381;-73
2023/04/01 00:26:58;;;;;;;2.55;1.73;;;;;;;9.28;100.00;98962.94;1045716;28;20333;-74
2023/04/01 00:27:29;;;;;;;5.88;1.85;;;;;;;9.27;100.00;98962.16;1043913;28;20404;-75
2023/04/01 00:28:01;;;;;;;4.40;1.85;;;;;;;9.27;100.00;98966.66;1044394;28;20292;-74
2023/04/01 00:28:35;;;;;;;3.72;2.50;;;;;;;9.33;100.00;98955.06;1044102;28;20866;-74
2023/04/01 00:29:07;;;;;;;4.75;2.03;;;;;;;9.35;100.00;98966.22;1043445;28;20697;-73
2023/04/01 00:29:44;;;;;;;2.55;1.90;;;;;;;9.37;100.00;98961.44;1043975;28;20310;-74
2023/04/01 00:30:16;;;;;;;3.50;2.13;;;;;;;9.34;100.00;98959.31;1039910;28;20307;-73
2023/04/01 00:30:48;;;;;;;6.65;2.33;;;;;;;9.31;100.00;98957.13;1039604;28;20806;-74
2023/04/01 00:31:20;;;;;;;3.67;2.10;;;;;;;9.29;100.00;98960.03;1039735;28;20318;-74
2023/04/01 00:31:52;;;;;;;3.17;1.70;;;;;;;9.27;100.00;98961.34;1035772;28;20403;-74
2023/04/01 00:32:23;;;;;;;2.60;1.52;;;;;;;9.38;100.00;98957.75;1035883;28;20301;-73
2023/04/01 00:32:55;;;;;;;4.25;2.40;;;;;;;9.29;100.00;98962.69;1035694;28;20312;-74
2023/04/01 00:33:27;;;;;;;4.28;1.98;;;;;;;9.33;100.00;98960.38;1035897;28;20308;-74
2023/04/01 00:33:58;;;;;;;6.22;2.05;;;;;;;9.34;100.00;98961.97;1036243;28;20806;-73
2023/04/01 00:34:30;;;;;;;4.40;2.22;;;;;;;9.34;100.00;98958.50;1040026;28;20369;-73
2023/04/01 00:35:03;;;;;;;3.80;2.10;;;;;;;9.36;100.00;98964.38;1043901;28;20352;-74
2023/04/01 00:35:35;;;;;;;3.88;1.75;;;;;;;9.27;100.00;98967.47;1043845;28;20292;-75
2023/04/01 00:36:06;;;;;;;3.25;1.70;;;;;;;9.26;100.00;98965.88;1048564;28;20377;-74
2023/04/01 00:36:38;;;;;;;7.20;2.30;;;;;;;9.31;100.00;98959.78;1048184;28;20290;-72
2023/04/01 00:37:11;;;;;;;2.47;2.28;;;;;;;9.27;100.00;98961.34;1048325;28;20321;-73
2023/04/01 00:37:42;;;;;;;7.65;1.92;;;;;;;9.32;100.00;98953.44;1048116;28;20385;-74
2023/04/01 00:38:14;;;;;;;4.93;2.47;;;;;;;9.30;100.00;98960.84;1044234;28;20350;-72
2023/04/01 00:38:46;;;;;;;3.05;2.03;;;;;;;9.23;100.00;98966.38;1043814;28;20959;-74
2023/04/01 00:39:19;;;;;;;2.65;1.98;;;;;;;9.25;100.00;98960.81;1044129;28;20345;-74
2023/04/01 00:39:51;;;;;;;4.50;1.65;;;;;;;9.20;100.00;98961.56;1043401;28;20299;-73
2023/04/01 00:40:38;;;;;;;3.63;2.53;;;;;;;9.25;100.00;98958.16;1039590;28;20300;-74
2023/04/01 00:41:14;;;;;;;2.83;2.13;;;;;;;9.28;100.00;98958.44;1035050;28;20787;-74
2023/04/01 00:41:46;;;;;;;4.07;2.20;;;;;;;9.22;100.00;98961.31;1031839;28;20301;-74
2023/04/01 00:42:18;;;;;;;5.40;2.08;;;;;;;9.28;100.00;98952.31;1031315;28;20360;-74
2023/04/01 00:42:50;;;;;;;3.38;1.90;;;;;;;9.23;100.00;98957.59;1036668;28;20297;-74
2023/04/01 00:43:21;;;;;;;4.82;2.20;;;;;;;9.20;100.00;98958.13;1041307;28;20683;-74
2023/04/01 00:44:20;;;;;;;3.97;1.70;;;;;;;9.24;100.00;98961.88;1043529;28;20303;-74
2023/04/01 00:44:54;;;;;;;1.95;1.75;;;;;;;9.24;100.00;98957.34;1035156;28;20304;-73
2023/04/01 00:45:32;;;;;;;4.40;1.80;;;;;;;9.25;100.00;98955.50;1035423;28;20300;-74
2023/04/01 00:46:04;;;;;;;5.55;2.00;;;;;;;9.26;100.00;98965.06;1031152;28;20332;-73
2023/04/01 00:46:36;;;;;;;5.85;2.42;;;;;;;9.29;100.00;98964.56;1033155;28;20839;-73
2023/04/01 00:47:08;;;;;;;2.75;1.52;;;;;;;9.32;100.00;98963.28;1037265;28;20304;-73
2023/04/01 00:47:40;;;;;;;3.80;2.03;;;;;;;9.27;100.00;98964.00;1031135;28;20309;-74
2023/04/01 00:48:20;;;;;;;6.03;2.38;;;;;;;9.25;100.00;98964.25;1027886;28;20563;-74
2023/04/01 00:48:54;;;;;;;4.00;1.60;;;;;;;9.25;100.00;98968.78;1032896;28;20297;-75
2023/04/01 00:49:32;;;;;;;5.30;1.80;;;;;;;9.18;100.00;98962.88;1033322;28;20054;-74
2023/04/01 00:50:04;;;;;;;5.28;2.08;;;;;;;9.04;100.00;98959.03;1031233;28;20305;-74
2023/04/01 00:50:37;;;;;;;2.00;1.80;;;;;;;9.12;100.00;98964.69;1037359;28;20801;-73
2023/04/01 00:51:18;;;;;;;6.57;2.20;;;;;;;9.11;100.00;98957.78;1037809;28;20308;-73
2023/04/01 00:51:52;;;;;;;4.75;1.80;;;;;;;9.25;100.00;98963.47;1037730;28;20297;-73
2023/04/01 00:52:25;;;;;;;1.88;1.58;;;;;;;9.17;100.00;98963.94;1033225;28;20288;-74
2023/04/01 00:52:58;;;;;;;3.47;2.20;;;;;;;9.23;100.00;98965.56;1037708;28;20309;-73
2023/04/01 00:53:30;;;;;;;4.00;1.75;;;;;;;9.16;100.00;98957.03;1041967;28;20824;-74
2023/04/01 00:54:03;;;;;;;3.75;1.90;;;;;;;9.24;100.00;98962.66;1044772;28;20429;-73
2023/04/01 00:54:36;;;;;;;4.97;1.63;;;;;;;9.25;100.00;98966.13;1042630;28;20386;-73
2023/04/01 00:55:08;;;;;;;2.83;1.83;;;;;;;9.29;100.00;98961.91;1034911;28;20313;-73
2023/04/01 00:55:43;;;;;;;2.85;1.83;;;;;;;9.32;100.00;98969.38;1035363;28;20296;-74
2023/04/01 00:56:19;;;;;;;4.10;1.60;;;;;;;9.28;100.00;98963.75;1036833;28;20837;-74
2023/04/01 00:57:09;;;;;;;4.22;1.67;;;;;;;9.23;100.00;98968.22;1038607;28;20320;-75
2023/04/01 00:57:44;;;;;;;5.22;2.17;;;;;;;9.18;100.00;98965.53;1039424;28;20308;-73
2023/04/01 00:58:17;;;;;;;7.20;2.10;;;;;;;9.17;100.00;98962.06;1043643;28;20296;-73
2023/04/01 00:58:52;;;;;;;2.17;1.98;;;;;;;9.10;100.00;98968.66;1039084;28;20777;-73
2023/04/01 00:59:27;;;;;;;3.63;1.27;;;;;;;9.20;100.00;98971.41;1037104;28;20821;-73
2023/04/01 00:59:59;;;;;;;2.67;2.15;;;;;;;9.17;100.00;98967.41;1036009;28;20308;-74
2023/04/01 01:00:31;;;;;;;3.90;2.42;;;;;;;9.21;100.00;98967.69;1032408;28;20368;-74
2023/04/01 01:01:02;;;;;;;3.83;2.05;;;;;;;9.25;100.00;98969.56;1032975;28;20309;-73
2023/04/01 01:01:35;;;;;;;7.85;1.92;;;;;;;9.23;100.00;98970.88;1032204;28;20363;-75
2023/04/01 01:02:08;;;;;;;4.30;2.20;;;;;;;9.27;100.00;98966.66;1033918;28;20300;-74
2023/04/01 01:02:44;;;;;;;3.92;1.85;;;;;;;9.25;100.00;98963.47;1035633;28;20383;-74
2023/04/01 01:03:16;;;;;;;6.65;1.98;;;;;;;9.24;100.00;98972.50;1038004;28;20336;-74
2023/04/01 01:03:48;;;;;;;3.33;1.98;;;;;;;9.26;100.00;98968.53;1039205;28;20339;-73
2023/04/01 01:04:31;;;;;;;2.15;2.00;;;;;;;9.24;100.00;98965.31;1039403;28;20640;-73
2023/04/01 01:05:03;;;;;;;5.55;2.80;;;;;;;9.25;100.00;98964.25;1040000;28;20786;-73
2023/04/01 01:05:53;;;;;;;2.28;1.80;;;;;;;9.08;100.00;98968.13;1039393;28;20311;-74
2023/04/01 01:06:47;;;;;;;2.20;2.00;;;;;;;9.15;100.00;98974.81;1035345;28;20304;-73
2023/04/01 01:07:40;;;;;;;2.20;1.80;;;;;;;9.15;100.00;98969.50;1032864;28;20827;-73
2023/04/01 01:08:37;;;;;;;4.40;2.00;;;;;;;9.20;100.00;98966.09;1033676;28;20301;-73
2023/04/01 01:09:21;;;;;;;2.83;1.80;;;;;;;9.18;100.00;98968.19;1038158;28;20312;-73
2023/04/01 01:09:58;;;;;;;5.05;1.83;;;;;;;9.18;100.00;98973.50;1036838;28;20300;-73
2023/04/01 01:10:33;;;;;;;2.28;2.03;;;;;;;9.22;100.00;98969.28;1035399;28;20288;-73
2023/04/01 01:11:08;;;;;;;4.47;2.25;;;;;;;9.24;100.00;98977.81;1026968;28;20314;-73
2023/04/01 01:11:51;;;;;;;3.92;1.75;;;;;;;9.16;100.00;98975.63;1033352;28;20286;-73
2023/04/01 01:12:32;;;;;;;3.90;1.92;;;;;;;9.22;100.00;98974.59;1036451;28;20304;-73
2023/04/01 01:13:22;;;;;;;1.95;1.73;;;;;;;9.22;100.00;98969.28;1044218;28;20869;-72
2023/04/01 01:14:09;;;;;;;4.30;2.30;;;;;;;9.23;100.00;98968.22;1035142;28;20046;-73
2023/04/01 01:14:53;;;;;;;5.55;2.15;;;;;;;9.25;100.00;98971.44;1033883;28;20301;-74
2023/04/01 01:15:31;;;;;;;4.00;1.80;;;;;;;9.21;100.00;98962.38;1033955;28;20352;-74
2023/04/01 01:16:06;;;;;;;3.92;2.08;;;;;;;9.22;100.00;98974.59;1031278;28;20305;-74
2023/04/01 01:16:44;;;;;;;5.30;3.10;;;;;;;9.24;100.00;98970.63;1034577;28;20387;-73
2023/04/01 01:17:37;;;;;;;4.03;2.00;;;;;;;9.22;100.00;98977.25;1034280;28;20651;-74
2023/04/01 01:18:29;;;;;;;3.85;2.08;;;;;;;9.18;100.00;98970.84;1039374;28;20393;-75
2023/04/01 01:19:33;;;;;;;3.45;1.92;;;;;;;9.23;100.00;98973.53;1039261;28;20319;-72
2023/04/01 01:20:37;;;;;;;2.60;2.38;;;;;;;9.25;100.00;98968.78;1038742;28;20358;-73
2023/04/01 01:21:20;;;;;;;2.42;1.73;;;;;;;9.24;100.00;98972.50;1031191;28;20308;-74
2023/04/01 01:22:13;;;;;;;2.65;2.45;;;;;;;9.20;100.00;98974.06;1029005;28;20631;-73
2023/04/01 01:23:03;;;;;;;2.50;2.30;;;;;;;9.16;100.00;98970.31;1036845;28;20391;-75
2023/04/01 01:23:46;;;;;;;4.20;2.13;;;;;;;9.20;100.00;98977.50;1043652;28;20855;-75
2023/04/01 01:24:42;;;;;;;4.53;2.90;;;;;;;9.18;100.00;98976.16;1042954;28;20300;-74
2023/04/01 01:25:25;;;;;;;2.47;2.03;;;;;;;9.20;100.00;98971.41;1039491;28;20292;-75
2023/04/01 01:26:12;;;;;;;3.40;3.10;;;;;;;9.20;100.00;98972.19;1038067;28;20864;-74
2023/04/01 01:27:04;;;;;;;3.45;2.13;;;;;;;9.19;100.00;98975.09;1043234;28;20322;-74
2023/04/01 01:27:39;;;;;;;2.85;2.65;;;;;;;9.21;100.00;98978.31;1039721;28;20300;-74
2023/04/01 01:28:44;;;;;;;3.60;2.53;;;;;;;9.22;100.00;98979.91;1031274;28;20305;-73
2023/04/01 01:29:36;;;;;;;4.72;2.83;;;;;;;9.17;100.00;98980.66;1029971;28;20674;-74
2023/04/01 01:30:17;;;;;;;5.45;2.95;;;;;;;9.15;100.00;98974.81;1039150;28;20303;-73
2023/04/01 01:31:10;;;;;;;3.25;2.28;;;;;;;9.17;100.00;98971.91;1035478;28;20806;-74
2023/04/01 01:31:54;;;;;;;4.68;3.60;;;;;;;9.19;100.00;98975.09;1033983;28;20066;-74
2023/04/01 01:32:26;;;;;;;3.40;2.70;;;;;;;9.18;100.00;98968.19;1039130;28;20880;-74
2023/04/01 01:33:16;;;;;;;2.65;2.40;;;;;;;9.19;100.00;98975.09;1039793;28;20382;-74
2023/04/01 01:34:15;;;;;;;3.38;2.78;;;;;;;9.18;100.00;98973.50;1039192;28;20308;-73
2023/04/01 01:34:47;;;;;;;4.13;2.88;;;;;;;9.21;100.00;98975.66;1043674;28;20291;-73
2023/04/01 01:35:29;;;;;;;3.92;2.72;;;;;;;9.15;100.00;98972.16;1043596;28;20807;-74
2023/04/01 01:36:05;;;;;;;6.30;2.67;;;;;;;9.21;100.00;98978.31;1037041;28;20327;-74
2023/04/01 01:36:38;;;;;;;4.13;3.35;;;;;;;9.19;100.00;98975.91;1035595;28;20301;-73
2023/04/01 01:37:15;;;;;;;3.25;2.80;;;;;;;9.21;100.00;98979.13;1031010;28;20313;-73
2023/04/01 01:37:50;;;;;;;4.25;2.50;;;;;;;9.19;100.00;98980.41;1035195;28;20304;-74
2023/04/01 01:38:24;;;;;;;3.92;3.05;;;;;;;9.23;100.00;98976.19;1036720;28;20316;-74
2023/04/01 01:39:07;;;;;;;26.90;5.28;;;;;;;9.23;100.00;98978.84;1035131;28;20679;-75
2023/04/01 01:39:39;;;;;;;6.72;3.00;;;;;;;9.27;100.00;98972.78;1037825;28;20037;-73
2023/04/01 01:40:12;;;;;;;3.78;3.17;;;;;;;9.25;100.00;98979.41;1037969;28;20289;-73
2023/04/01 01:40:48;;;;;;;4.53;3.85;;;;;;;9.21;100.00;98973.00;1033192;28;20297;-73
2023/04/01 01:41:21;;;;;;;4.22;3.78;;;;;;;9.26;100.00;98973.03;1027123;28;20313;-73
2023/04/01 01:41:56;;;;;;;3.05;2.78;;;;;;;9.22;100.00;98980.72;1035214;28;20308;-73
2023/04/01 01:42:30;;;;;;;3.20;2.72;;;;;;;9.27;100.00;98975.44;1030960;28;20419;-74
2023/04/01 01:43:06;;;;;;;4.03;3.00;;;;;;;9.20;100.00;98982.81;1032715;28;20301;-74
2023/04/01 01:43:43;;;;;;;2.97;2.35;;;;;;;9.24;100.00;98980.47;1030863;28;20676;-74
2023/04/01 01:44:18;;;;;;;5.20;2.78;;;;;;;9.09;100.00;98980.34;1040442;28;20304;-73
2023/04/01 01:44:51;;;;;;;5.82;2.70;;;;;;;9.22;100.00;98980.72;1045725;28;20859;-73
2023/04/01 01:45:25;;;;;;;4.82;3.22;;;;;;;9.25;100.00;98976.75;1045461;28;20307;-73
2023/04/01 01:46:00;;;;;;;6.03;3.53;;;;;;;9.25;100.00;98976.75;1042059;28;20801;-74
2023/04/01 01:46:33;;;;;;;3.75;2.75;;;;;;;9.25;100.00;98979.41;1035344;28;20319;-74
2023/04/01 01:47:05;;;;;;;3.53;2.55;;;;;;;9.22;100.00;98985.22;1035226;28;20305;-74
2023/04/01 01:47:37;;;;;;;4.15;3.75;;;;;;;9.19;100.00;98975.91;1036157;28;20370;-74
2023/04/01 01:48:10;;;;;;;5.82;2.97;;;;;;;9.14;100.00;98980.38;1035046;28;20327;-74
2023/04/01 01:48:42;;;;;;;4.65;3.20;;;;;;;9.09;100.00;98990.97;1027809;28;20770;-73
2023/04/01 01:49:16;;;;;;;5.40;3.20;;;;;;;9.15;100.00;98980.13;1039470;28;20359;-74
2023/04/01 01:49:48;;;;;;;3.75;3.13;;;;;;;9.25;100.00;98974.88;1035900;28;20308;-73
2023/04/01 01:50:21;;;;;;;5.38;3.35;;;;;;;9.27;100.00;98985.25;1035279;28;20305;-74
2023/04/01 01:50:53;;;;;;;7.72;4.65;;;;;;;9.26;100.00;98978.34;1027407;28;20716;-74
2023/04/01 01:51:26;;;;;;;3.58;3.22;;;;;;;9.22;100.00;98985.22;1027729;28;20855;-74
2023/04/01 01:51:58;;;;;;;5.28;3.83;;;;;;;9.19;100.00;98977.75;1023880;28;20314;-74
2023/04/01 01:52:30;;;;;;;4.15;3.70;;;;;;;9.19;100.00;98986.53;1027821;28;20306;-74
2023/04/01 01:53:07;;;;;;;4.22;3.58;;;;;;;9.29;100.00;98983.16;1029995;28;20669;-74
2023/04/01 01:53:39;;;;;;;5.45;3.72;;;;;;;9.26;100.00;98981.81;1026011;28;20307;-75
2023/04/01 01:54:13;;;;;;;5.88;4.45;;;;;;;9.26;100.00;98984.47;1032450;28;20312;-73
2023/04/01 01:54:53;;;;;;;5.57;3.88;;;;;;;9.25;100.00;98987.38;1031619;28;20301;-73
2023/04/01 01:55:31;;;;;;;3.88;3.45;;;;;;;9.35;100.00;98976.06;1038668;28;20672;-74
2023/04/01 01:56:04;;;;;;;4.88;3.67;;;;;;;9.30;100.00;98985.56;1037861;28;20431;-74
2023/04/01 01:56:43;;;;;;;3.50;3.13;;;;;;;9.33;100.00;98986.13;1030965;28;20306;-74
2023/04/01 01:57:17;;;;;;;5.90;4.20;;;;;;;9.33;100.00;98986.13;1026758;28;20309;-75
2023/04/01 01:57:54;;;;;;;8.50;5.32;;;;;;;9.34;100.00;98987.72;1026819;28;20853;-74
2023/04/01 01:58:32;;;;;;;6.10;3.80;;;;;;;9.32;100.00;98979.22;1027331;28;20316;-74
2023/04/01 01:59:08;;;;;;;5.28;4.55;;;;;;;9.31;100.00;98983.69;1030281;28;20313;-74
2023/04/01 01:59:40;;;;;;;4.75;3.50;;;;;;;9.28;100.00;98984.22;1035780;28;20313;-73
2023/04/01 02:00:13;;;;;;;4.57;4.10;;;;;;;9.28;100.00;98979.69;1030718;28;20309;-73
2023/04/01 02:00:51;;;;;;;7.50;4.03;;;;;;;9.33;100.00;98986.94;1028493;28;20301;-74
2023/04/01 02:01:25;;;;;;;6.43;4.05;;;;;;;9.27;100.00;98987.91;1035058;28;20311;-73
2023/04/01 02:01:59;;;;;;;5.45;4.22;;;;;;;9.26;100.00;98987.13;1033924;28;20943;-73
2023/04/01 02:02:31;;;;;;;4.80;4.30;;;;;;;9.30;100.00;98984.75;1032921;28;20305;-73
2023/04/01 02:03:04;;;;;;;5.90;4.50;;;;;;;9.25;100.00;98987.38;1030880;28;20293;-74
2023/04/01 02:03:37;;;;;;;4.53;4.13;;;;;;;9.24;100.00;98983.13;1037091;28;20644;-73
2023/04/01 02:04:10;;;;;;;5.18;4.38;;;;;;;9.23;100.00;98992.13;1038041;28;20304;-74
2023/04/01 02:04:43;;;;;;;5.53;4.60;;;;;;;9.25;100.00;98988.16;1038251;28;20371;-74
2023/04/01 02:05:19;;;;;;;5.10;4.15;;;;;;;9.29;100.00;98980.50;1038095;28;20295;-74
2023/04/01 02:05:53;;;;;;;5.30;4.45;;;;;;;9.33;100.00;98992.25;1038691;28;20666;-74
2023/04/01 02:06:27;;;;;;;7.78;4.80;;;;;;;9.31;100.00;98983.69;1035859;28;20779;-72
2023/04/01 02:07:06;;;;;;;6.47;4.65;;;;;;;9.29;100.00;98985.81;1032622;28;20358;-74
2023/04/01 02:07:39;;;;;;;5.00;4.30;;;;;;;9.31;100.00;98994.31;1035087;28;20296;-74
2023/04/01 02:08:18;;;;;;;12.65;5.18;;;;;;;9.28;100.00;98989.53;1028888;28;20337;-73
2023/04/01 02:08:56;;;;;;;5.45;4.88;;;;;;;9.31;100.00;98989.00;1034022;28;20660;-73
2023/04/01 02:09:29;;;;;;;8.25;5.68;;;;;;;9.27;100.00;98993.22;1029539;28;20312;-74
2023/04/01 02:10:01;;;;;;;7.22;5.13;;;;;;;9.28;100.00;98987.66;1033681;28;20902;-73
2023/04/01 02:10:36;;;;;;;7.07;4.43;;;;;;;9.32;100.00;98990.66;1032225;28;20316;-74
2023/04/01 02:11:11;;;;;;;4.93;4.05;;;;;;;9.33;100.00;98994.09;1031812;28;20310;-74
2023/04/01 02:11:55;;;;;;;6.97;5.32;;;;;;;9.33;100.00;98991.44;1035133;28;20314;-75
2023/04/01 02:12:28;;;;;;;5.85;4.32;;;;;;;9.35;100.00;98995.44;1038992;28;20437;-74
2023/04/01 02:13:03;;;;;;;9.13;4.82;;;;;;;9.36;100.00;98996.25;1041661;28;20805;-74
2023/04/01 02:13:39;;;;;;;7.15;5.15;;;;;;;9.26;100.00;98994.28;1033176;28;20301;-73
2023/04/01 02:14:14;;;;;;;5.45;4.32;;;;;;;9.27;100.00;98993.22;1028596;28;20314;-74
2023/04/01 02:14:52;;;;;;;6.57;4.80;;;;;;;9.21;100.00;98989.75;1031058;28;20411;-74
2023/04/01 02:15:24;;;;;;;7.47;4.72;;;;;;;9.27;100.00;98996.69;1031429;28;20301;-73
2023/04/01 02:15:59;;;;;;;8.43;4.75;;;;;;;9.29;100.00;98996.44;1032878;28;20345;-74
2023/04/01 02:16:39;;;;;;;6.35;5.55;;;;;;;9.27;100.00;98987.91;1034855;28;20305;-73
2023/04/01 02:17:13;;;;;;;5.85;5.35;;;;;;;9.29;100.00;98999.09;1031137;28;20324;-74
2023/04/01 02:17:46;;;;;;;9.70;5.78;;;;;;;9.26;100.00;98997.75;1030904;28;20316;-73
2023/04/01 02:18:19;;;;;;;6.32;5.50;;;;;;;9.32;100.00;99000.47;1031076;28;20390;-73
2023/04/01 02:18:53;;;;;;;7.43;5.13;;;;;;;9.28;100.00;98998.28;1037222;28;20305;-73
2023/04/01 02:19:29;;;;;;;8.32;5.65;;;;;;;9.28;100.00;99002.81;1039462;28;20399;-73
2023/04/01 02:20:08;;;;;;;10.10;5.50;;;;;;;9.32;100.00;98992.50;1032623;28;20305;-74
2023/04/01 02:20:41;;;;;;;8.60;5.68;;;;;;;9.32;100.00;98995.16;1028911;28;20395;-74
2023/04/01 02:21:12;;;;;;;5.88;5.28;;;;;;;9.32;100.00;98990.66;1032236;28;20317;-74
2023/04/01 02:21:44;;;;;;;6.38;5.50;;;;;;;9.34;100.00;98995.69;1034238;28;20938;-74
2023/04/01 02:22:20;;;;;;;7.70;5.05;;;;;;;9.32;100.00;98995.97;1038177;28;20309;-74
2023/04/01 02:22:57;;;;;;;7.72;5.50;;;;;;;9.37;100.00;98996.00;1038251;28;20347;-74
2023/04/01 02:23:29;;;;;;;8.98;5.47;;;;;;;9.29;100.00;98994.59;1029411;28;20290;-73
2023/04/01 02:24:04;;;;;;;7.57;5.43;;;;;;;9.30;100.00;98998.84;1032578;28;20309;-74
2023/04/01 02:24:40;;;;;;;7.13;5.93;;;;;;;9.29;100.00;98994.59;1037053;28;20665;-73
2023/04/01 02:25:15;;;;;;;12.32;6.32;;;;;;;9.27;100.00;98998.53;1036189;28;20323;-73
2023/04/01 02:25:46;;;;;;;7.95;5.55;;;;;;;9.26;100.00;98995.09;1034573;28;20312;-73
2023/04/01 02:26:18;;;;;;;8.75;6.68;;;;;;;9.26;100.00;98996.94;1032272;28;20384;-74
2023/04/01 02:26:51;;;;;;;9.52;6.57;;;;;;;9.21;100.00;98997.72;1026772;28;20314;-73
2023/04/01 02:27:23;;;;;;;7.93;6.40;;;;;;;9.27;100.00;98993.22;1030821;28;20309;-74
2023/04/01 02:27:57;;;;;;;7.43;6.60;;;;;;;9.25;100.00;98995.34;1034878;28;20300;-74
2023/04/01 02:28:29;;;;;;;8.38;5.75;;;;;;;9.32;100.00;98995.16;1039484;28;20311;-75
2023/04/01 02:29:01;;;;;;;7.03;5.80;;;;;;;9.31;100.00;98999.63;1030360;28;20319;-75
2023/04/01 02:29:33;;;;;;;10.77;7.28;;;;;;;9.34;100.00;98999.16;1031965;28;20305;-74
2023/04/01 02:30:06;;;;;;;8.35;6.75;;;;;;;9.29;100.00;98999.09;1031213;28;20439;-73
2023/04/01 02:30:38;;;;;;;7.57;6.18;;;;;;;9.31;100.00;99004.94;1028513;28;20344;-74
2023/04/01 02:31:11;;;;;;;9.05;6.47;;;;;;;9.29;100.00;99001.75;1031818;28;20336;-73
2023/04/01 02:31:43;;;;;;;9.65;6.78;;;;;;;9.33;100.00;98994.91;1030789;28;20333;-74
2023/04/01 02:32:16;;;;;;;11.88;6.35;;;;;;;9.28;100.00;98997.50;1035411;28;20315;-73
2023/04/01 02:32:49;;;;;;;7.38;6.35;;;;;;;9.34;100.00;98999.16;1032838;28;20330;-73
2023/04/01 02:33:20;;;;;;;11.18;7.03;;;;;;;9.27;100.00;99002.00;1030728;28;20309;-73
2023/04/01 02:33:54;;;;;;;9.50;6.78;;;;;;;9.27;100.00;98999.34;1028831;28;20310;-73
2023/04/01 02:34:26;;;;;;;9.50;7.13;;;;;;;9.25;100.00;98998.81;1035648;28;20790;-74
2023/04/01 02:34:59;;;;;;;12.02;7.07;;;;;;;9.28;100.00;99000.16;1035210;28;20806;-74
2023/04/01 02:35:34;;;;;;;10.98;6.60;;;;;;;9.24;100.00;98996.41;1036649;28;20691;-74
2023/04/01 02:36:06;;;;;;;11.40;7.32;;;;;;;9.27;100.00;99006.50;1039141;28;20299;-75
2023/04/01 02:36:38;;;;;;;9.73;6.80;;;;;;;9.26;100.00;99000.41;1040768;28;20813;-75
2023/04/01 02:37:11;;;;;;;9.38;7.60;;;;;;;9.28;100.00;99000.16;1038576;28;20837;-74
2023/04/01 02:37:44;;;;;;;9.13;6.50;;;;;;;9.31;100.00;99002.28;1035166;28;20297;-73
2023/04/01 02:38:15;;;;;;;8.32;6.00;;;;;;;9.35;100.00;99006.06;1040102;28;20312;-73
2023/04/01 02:38:48;;;;;;;14.82;7.60;;;;;;;9.28;100.00;99000.16;1036009;28;20308;-74
2023/04/01 02:39:20;;;;;;;10.50;6.07;;;;;;;9.23;100.00;99000.09;1039749;28;20308;-73
2023/04/01 02:39:52;;;;;;;10.07;7.32;;;;;;;9.24;100.00;99007.03;1033977;28;20308;-74
2023/04/01 02:40:24;;;;;;;8.88;6.30;;;;;;;9.28;100.00;99005.47;1032092;28;20312;-74
2023/04/01 02:41:00;;;;;;;9.00;7.57;;;;;;;9.31;100.00;99007.59;1035194;28;20659;-74
2023/04/01 02:41:31;;;;;;;9.88;7.00;;;;;;;9.27;100.00;99011.81;1029163;28;20342;-74
2023/04/01 02:42:03;;;;;;;7.10;6.40;;;;;;;9.24;100.00;99010.47;1031749;28;20301;-75
2023/04/01 02:42:35;;;;;;;8.32;7.13;;;;;;;9.32;100.00;99011.91;1035342;28;20307;-75
2023/04/01 02:43:08;;;;;;;11.05;7.03;;;;;;;9.29;100.00;99005.22;1032849;28;20297;-75
2023/04/01 02:43:40;;;;;;;9.27;7.30;;;;;;;9.30;100.00;99008.66;1039532;28;20304;-73
2023/04/01 02:44:12;;;;;;;12.50;8.25;;;;;;;9.27;100.00;99014.50;1039273;28;20303;-73
2023/04/01 02:44:44;;;;;;;15.32;7.30;;;;;;;9.32;100.00;99017.22;1031767;28;20305;-74
2023/04/01 02:45:16;;;;;;;10.93;7.70;;;;;;;9.38;100.00;99010.88;1030602;28;20298;-74
2023/04/01 02:45:47;;;;;;;8.27;7.47;;;;;;;9.32;100.00;99011.09;1031229;28;20889;-74
2023/04/01 02:46:19;;;;;;;8.50;7.30;;;;;;;9.40;100.00;99008.78;1036154;28;20881;-73
2023/04/01 02:46:51;;;;;;;12.52;7.13;;;;;;;9.36;100.00;99012.19;1039449;28;20312;-74
2023/04/01 02:47:24;;;;;;;7.50;6.10;;;;;;;9.31;100.00;99015.59;1038051;28;20296;-74